Latest Coastal Weather Observations for Bairnsdale

IDV60701

Issued at 9:42 pm EDT Wednesday 7 December 2022 (issued every 10 minutes, with the page automatically refreshed every 10 minutes)

About coastal observations | Map of coastal stations | Coastal observations for VIC | Marine services | Other Formats
Station Details ID: 085279 Name: BAIRNSDALE AIRPORT Lat: -37.88 Lon: 147.57 Height: 49.4 m
Data from the previous 72 hours. | See also: Recent months at Bairnsdale
Date/Time
EDT
Wind Sea
Height
m
Swell Vis
km
Cloud Weather Temp
°C
Press
MSL
hPa
Rain since
9am
mm
Dir  Spd
kts
Gust
kts
Height
m
Period
s
Dir
07/09:30pm NW 4 6 - - - - 10 Partly cloudy - 12.8 1003.9 5.0
07/09:00pm WSW 7 9 - - - - 10 Partly cloudy - 12.8 1003.5 5.0
07/08:30pm WNW 5 6 - - - - 10 Partly cloudy - 13.4 1003.5 5.0
07/08:00pm NNW 6 9 - - - - 10 Cloudy - 13.7 1003.5 5.0
07/07:30pm NNW 5 6 - - - - 10 Partly cloudy - 13.6 1003.0 5.0
07/07:00pm E 3 5 - - - - 10 Partly cloudy - 13.9 1002.8 4.8
07/06:30pm SSE 4 7 - - - - 10 Partly cloudy - 13.7 1002.6 4.8
07/06:00pm SSE 9 11 - - - - 10 Cloudy Rain 13.7 1002.3 4.6
07/05:30pm SSE 9 11 - - - - 9 Partly cloudy - 13.8 1002.4 4.2
07/05:12pm S 12 16 - - - - 10 Partly cloudy - 13.9 1002.2 2.8
07/05:00pm SSE 11 14 - - - - 10 Partly cloudy - 14.3 1001.9 2.8
07/04:59pm SSE 11 14 - - - - 10 Partly cloudy - 14.5 1001.9 2.8
07/04:40pm S 12 16 - - - - 5 Partly cloudy - 14.5 1002.5 2.0
07/04:30pm S 13 18 - - - - 10 Partly cloudy - 16.0 1002.1 0.0
07/04:00pm S 11 17 - - - - 10 Partly cloudy - 16.7 1002.5 0.0
07/03:30pm SSE 11 15 - - - - 10 - - 18.1 1002.2 0.0
07/03:00pm S 11 14 - - - - 10 Mostly cloudy - 16.0 1002.6 0.0
07/02:30pm S 13 17 - - - - 10 Partly cloudy - 17.2 1002.3 0.0
07/02:00pm S 13 19 - - - - 10 Partly cloudy - 19.1 1002.0 0.0
07/01:30pm S 13 17 - - - - 10 - - 19.7 1001.8 0.0
07/01:00pm SE 10 20 - - - - 10 Partly cloudy - 20.7 1001.5 0.0
07/12:30pm SSW 9 12 - - - - 10 - - 21.4 1001.7 0.0
07/12:00pm S 9 13 - - - - 10 - - 21.2 1001.7 0.0
07/11:30am SSW 7 10 - - - - 10 - - 21.5 1002.0 0.0
07/11:00am S 7 11 - - - - 10 - - 20.6 1002.4 0.0
07/10:30am SSW 5 8 - - - - 10 - - 20.4 1002.5 0.0
07/10:00am SSW 5 7 - - - - 10 - - 19.8 1002.8 0.0
07/09:30am NW 4 8 - - - - 10 - - 18.5 1003.0 0.0
07/09:00am N 3 4 - - - - 10 - - 17.4 1003.3 0.0
07/08:30am SSW 3 5 - - - - 10 - - 16.0 1003.4 0.0
07/08:00am CALM 0 0 - - - - 10 - - 14.4 1003.6 0.0
07/07:30am N 2 3 - - - - 10 - - 12.8 1003.5 0.0
07/07:00am N 4 4 - - - - 10 - - 11.4 1003.6 0.0
07/06:30am NNE 3 4 - - - - 10 - - 10.1 1003.7 0.0
07/06:00am N 3 4 - - - - 10 Cloudy - 9.5 1003.8 0.0
07/05:30am NW 5 5 - - - - 10 - - 9.4 1003.9 0.0
07/05:00am NW 4 5 - - - - 9 - - 8.9 1004.0 0.0
07/04:30am NNW 4 4 - - - - 8 - - 8.4 1004.1 0.0
07/04:00am N 2 3 - - - - 7 - - 8.4 1004.3 0.0
07/03:30am NNW 3 4 - - - - 7 - - 8.1 1004.4 0.0
07/03:00am NW 4 6 - - - - 6 Partly cloudy - 7.6 1004.5 0.0
07/02:30am NW 5 7 - - - - 6 - - 7.6 1005.1 0.0
07/02:00am NW 5 7 - - - - 8 - - 7.6 1005.3 0.0
07/01:30am NW 6 7 - - - - 10 - - 8.3 1005.7 0.0
07/01:00am NNW 5 5 - - - - 10 - - 9.3 1006.0 0.0
07/12:30am NW 4 5 - - - - 10 Partly cloudy - 9.3 1006.9 0.0
07/12:00am CALM 0 0 - - - - 10 Partly cloudy - 10.0 1007.3 0.0
 
Date/Time
EDT
Wind Sea
Height
m
Swell Vis
km
Cloud Weather Temp
°C
Press
MSL
hPa
Rain since
9am
mm
Dir  Spd
kts
Gust
kts
Height
m
Period
s
Dir
06/11:30pm NNE 2 3 - - - - 10 Cloudy - 11.7 1007.6 0.0
06/11:00pm ENE 4 5 - - - - 10 Cloudy - 11.6 1007.9 0.0
06/10:30pm NE 5 6 - - - - 10 Partly cloudy - 11.6 1008.1 0.0
06/10:00pm NE 5 7 - - - - 10 - - 10.9 1008.2 0.0
06/09:30pm ENE 5 6 - - - - 10 Partly cloudy - 11.4 1008.4 0.0
06/09:00pm ESE 5 6 - - - - 10 Mostly clear - 11.3 1008.3 0.0
06/08:30pm E 6 6 - - - - 10 - - 12.1 1008.3 0.0
06/08:00pm E 7 9 - - - - 10 - - 13.5 1008.2 0.0
06/07:30pm E 8 11 - - - - 10 - - 14.6 1008.1 0.0
06/07:00pm ESE 9 11 - - - - 10 - - 15.2 1008.2 0.0
06/06:30pm ESE 9 12 - - - - 10 - - 16.0 1008.0 0.0
06/06:00pm SE 8 13 - - - - 10 Mostly clear - 15.8 1007.9 0.0
06/05:30pm ESE 8 12 - - - - 10 Partly cloudy - 15.6 1008.2 0.0
06/05:00pm ESE 10 13 - - - - 10 Partly cloudy - 16.9 1008.3 0.0
06/04:30pm SE 9 12 - - - - 10 Partly cloudy - 16.3 1008.6 0.0
06/04:00pm SE 8 13 - - - - 10 Partly cloudy - 16.3 1008.9 0.0
06/03:30pm SE 8 11 - - - - 10 Partly cloudy - 16.6 1009.3 0.0
06/03:00pm SE 10 14 - - - - 10 Partly cloudy - 16.0 1009.5 0.0
06/02:30pm SE 6 8 - - - - 10 Partly cloudy - 16.1 1009.7 0.0
06/02:00pm SE 8 11 - - - - 10 Partly cloudy - 15.9 1010.1 0.0
06/01:30pm SSE 8 12 - - - - 10 Partly cloudy - 17.1 1010.3 0.0
06/01:00pm S 7 11 - - - - 10 Partly cloudy - 15.7 1010.5 0.0
06/12:30pm S 7 11 - - - - 10 Partly cloudy - 15.7 1010.8 0.0
06/12:00pm S 9 13 - - - - 10 Cloudy - 15.4 1010.9 0.0
06/11:30am S 9 12 - - - - 10 Partly cloudy - 15.6 1011.2 0.0
06/11:00am S 9 12 - - - - 10 Partly cloudy - 15.3 1011.3 0.0
06/10:30am SSE 9 12 - - - - 10 Partly cloudy - 15.0 1011.4 0.0
06/10:00am S 9 12 - - - - 10 Partly cloudy - 14.3 1011.5 0.0
06/09:30am S 11 13 - - - - 10 Partly cloudy - 14.1 1011.6 0.0
06/09:00am S 12 16 - - - - 10 Cloudy - 14.1 1011.8 3.6
06/08:30am S 8 12 - - - - 10 Partly cloudy - 13.7 1011.8 3.6
06/08:00am S 9 12 - - - - 10 Partly cloudy - 13.1 1011.7 3.6
06/07:30am S 9 12 - - - - 10 Partly cloudy - 13.3 1011.4 3.4
06/07:00am S 7 9 - - - - 10 Partly cloudy - 13.0 1011.2 3.4
06/06:30am S 8 10 - - - - 10 Partly cloudy - 12.6 1011.0 3.4
06/06:00am S 8 10 - - - - 10 Cloudy Recent precip. 12.2 1010.8 3.4
06/05:30am S 11 15 - - - - 9 Partly cloudy - 12.1 1010.8 3.4
06/05:21am S 10 14 - - - - 10 Partly cloudy - 12.3 1010.8 3.4
06/05:04am S 12 19 - - - - 5 Partly cloudy - 12.3 1010.7 3.2
06/05:00am S 10 19 - - - - 10 Partly cloudy - 12.6 1010.7 2.8
06/04:30am SSW 7 12 - - - - 10 Partly cloudy - 12.8 1010.6 2.8
06/04:00am S 8 11 - - - - 10 Cloudy - 13.1 1010.5 2.8
06/03:30am S 10 13 - - - - 10 Partly cloudy - 13.1 1010.6 2.8
06/03:00am S 9 11 - - - - 10 Cloudy Rain 13.1 1010.6 2.8
06/02:30am SSE 7 9 - - - - 10 Partly cloudy - 12.9 1010.6 2.6
06/02:28am SSE 8 9 - - - - 10 Partly cloudy - 13.0 1010.6 2.6
06/02:03am S 10 14 - - - - 5 Partly cloudy - 12.8 1010.8 2.4
06/02:00am S 11 14 - - - - 6 Partly cloudy - 12.8 1010.8 2.4
06/01:30am S 8 13 - - - - 10 Partly cloudy - 13.7 1010.9 2.2
06/01:00am SSE 9 12 - - - - 10 Partly cloudy - 13.8 1011.1 2.2
06/12:30am SSE 8 11 - - - - 10 Partly cloudy - 13.8 1011.2 2.2
06/12:00am S 8 11 - - - - 10 Cloudy - 13.8 1011.4 2.2
 
Date/Time
EDT
Wind Sea
Height
m
Swell Vis
km
Cloud Weather Temp
°C
Press
MSL
hPa
Rain since
9am
mm
Dir  Spd
kts
Gust
kts
Height
m
Period
s
Dir
05/11:30pm S 12 19 - - - - 8 Partly cloudy - 13.5 1011.4 2.2
05/11:05pm S 10 15 - - - - 10 Partly cloudy - 14.0 1011.4 2.2
05/11:00pm S 11 15 - - - - 10 Partly cloudy - 14.0 1011.5 2.2
05/10:30pm S 7 11 - - - - 10 Partly cloudy - 14.2 1011.2 2.2
05/10:00pm SSE 11 15 - - - - 10 Partly cloudy - 14.0 1011.0 2.2
05/09:37pm SSE 10 13 - - - - 10 Partly cloudy - 14.0 1010.7 2.2
05/09:30pm S 12 18 - - - - 7 Partly cloudy - 13.9 1010.6 2.2
05/09:11pm SW 15 21 - - - - 5 Partly cloudy - 13.6 1010.4 1.0
05/09:09pm WSW 15 21 - - - - 5 Partly cloudy - 13.5 1010.3 1.0
05/09:00pm SW 13 20 - - - - 10 Cloudy Rain 13.5 1010.1 0.6
05/08:30pm SW 15 22 - - - - 10 Partly cloudy - 15.2 1009.7 0.4
05/08:00pm WSW 17 25 - - - - 10 Partly cloudy - 15.6 1008.9 0.4
05/07:30pm WSW 17 28 - - - - 10 Partly cloudy - 16.2 1008.2 0.4
05/07:03pm WSW 19 29 - - - - 10 - - 17.2 1007.7 0.4
05/07:00pm WSW 22 30 - - - - 10 - - 17.1 1007.8 0.4
05/06:30pm WSW 20 31 - - - - 10 Partly cloudy - 17.5 1007.6 0.4
05/06:02pm WSW 20 30 - - - - 10 Partly cloudy - 18.2 1007.2 0.4
05/06:00pm WSW 22 30 - - - - 10 Partly cloudy - 18.3 1007.2 0.4
05/05:32pm WSW 23 33 - - - - 10 - - 19.6 1006.6 0.4
05/05:30pm WSW 24 33 - - - - 10 - - 19.5 1006.5 0.4
05/05:00pm WSW 24 35 - - - - 10 - - 19.8 1006.6 0.4
05/04:30pm WSW 24 35 - - - - 10 - - 20.6 1006.4 0.4
05/04:00pm WSW 26 37 - - - - 10 - - 20.6 1005.9 0.4
05/03:38pm WSW 28 38 - - - - 10 - - 20.3 1005.8 0.4
05/03:30pm WSW 29 38 - - - - 10 - - 20.4 1005.6 0.4
05/03:00pm SW 24 34 - - - - 10 - - 21.5 1005.2 0.4
05/02:30pm WSW 24 35 - - - - 10 - - 21.1 1005.5 0.4
05/02:11pm WSW 21 31 - - - - 10 - - 21.6 1005.9 0.4
05/02:00pm WSW 21 30 - - - - 10 Partly cloudy - 21.0 1005.9 0.4
05/01:31pm WSW 21 32 - - - - 10 Partly cloudy - 20.8 1005.7 0.4
05/01:30pm WSW 21 29 - - - - 10 Partly cloudy - 20.8 1005.7 0.4
05/01:04pm WSW 17 27 - - - - 10 Partly cloudy - 20.3 1005.8 0.4
05/01:00pm WSW 19 27 - - - - 10 Partly cloudy - 20.0 1005.7 0.4
05/12:30pm WSW 18 28 - - - - 10 Cloudy - 20.2 1005.7 0.4
05/12:04pm WSW 15 25 - - - - 10 Partly cloudy - 19.5 1005.8 0.4
05/12:00pm WSW 12 20 - - - - 10 - - 18.8 1005.8 0.4
05/11:30am WSW 9 13 - - - - 10 Partly cloudy - 17.0 1006.0 0.4
05/11:00am WSW 8 11 - - - - 10 Partly cloudy - 16.4 1006.2 0.4
05/10:30am WSW 8 12 - - - - 10 Partly cloudy - 16.2 1006.2 0.2
05/10:00am WSW 10 15 - - - - 10 Partly cloudy - 16.5 1005.8 0.0
05/09:30am WSW 11 21 - - - - 10 Partly cloudy - 17.2 1006.1 0.0
05/09:00am WSW 11 16 - - - - 10 Partly cloudy - 17.9 1005.9 0.0
05/08:30am WSW 15 22 - - - - 10 Partly cloudy - 17.8 1005.8 0.0
05/08:20am WSW 15 25 - - - - 10 Partly cloudy - 18.1 1006.0 0.0
05/08:00am W 10 14 - - - - 10 - - 18.9 1005.0 0.0
05/07:30am WSW 11 17 - - - - 10 - - 18.5 1005.1 0.0
05/07:00am WSW 14 22 - - - - 10 - - 17.9 1005.5 0.0
05/06:30am WSW 14 23 - - - - 10 - - 18.6 1005.4 0.0
05/06:21am WSW 15 23 - - - - 10 - - 19.1 1005.0 0.0
05/06:00am WSW 8 12 - - - - 10 Cloudy - 19.9 1004.5 0.0
05/05:30am SW 7 9 - - - - 10 - - 20.0 1003.4 0.0
05/05:00am SW 9 12 - - - - 10 - - 21.0 1003.0 0.0
05/04:30am WSW 15 20 - - - - 10 - - 23.2 1002.7 0.0
05/04:00am NW 9 13 - - - - 10 - - 23.9 1001.7 0.0
05/03:30am SSW 5 9 - - - - 10 - - 19.9 1002.4 0.0
05/03:00am NE 3 4 - - - - 10 Cloudy - 20.8 1002.1 0.0
05/02:30am NE 6 7 - - - - 10 - - 21.4 1002.4 0.0
05/02:00am NNE 7 9 - - - - 10 - - 21.2 1002.8 0.0
05/01:30am NE 6 7 - - - - 10 - - 20.8 1003.2 0.0
05/01:00am NNE 6 7 - - - - 10 - - 21.7 1003.8 0.0
05/12:30am NNE 5 7 - - - - 10 - - 21.5 1004.5 0.0
05/12:00am NE 6 7 - - - - 10 Partly cloudy - 20.9 1005.2 0.0
 
Date/Time
EDT
Wind Sea
Height
m
Swell Vis
km
Cloud Weather Temp
°C
Press
MSL
hPa
Rain since
9am
mm
Dir  Spd
kts
Gust
kts
Height
m
Period
s
Dir
04/11:30pm NE 6 7 - - - - 10 - - 21.1 1005.7 0.0
04/11:00pm NE 7 8 - - - - 10 - - 21.1 1006.3 0.0
04/10:30pm ENE 7 9 - - - - 10 - - 21.9 1006.8 0.0
04/10:00pm NE 7 9 - - - - 10 - - 22.9 1007.1 0.0

Other formats

Comma delimited format used in spreadsheet applications
http://www.bom.gov.au/fwo/IDV60701/IDV60701.94912.axf

JavaScript Object Notation format (JSON) in row-major order
http://www.bom.gov.au/fwo/IDV60701/IDV60701.94912.json

Data quality

Most of these data are generated automatically and are frequently updated. Quality checks on data are not normally performed. It is possible for incorrect values to appear. Refer to information at About Latest Weather Observations and please check the disclaimer before using these data.